Main page
METAR-TAF:

METAR-TAF

Airports :

Scatsta Airport

Scatsta, Shetland, Scotland

latitude: 60-26N, longitude: 001-18W, elevation: 22 m

Current weather observation

The report was made 42 minutes ago, at 22:20 UTC
Wind 10 kt from the East/Southeast
Temperature 7°C
Humidity 87%
Pressure 1011 hPa
Visibility 10 km or more

METAR: EGPM 212220Z AUTO 11010KT 9999 SCT023/// 07/05 Q1011

Time: 23:02 (23:02 UTC)

Forecast

The report was made 6 hours and 2 minutes ago, at 17:00 UTC
Forecast valid from 21 at 18 UTC to 21 at 20 UTC
Wind 12 kt from the East/Southeast
Visibility 10 km or more
Few clouds at a height of 1400 ft
Scattered clouds at a height of 2500 ft
Temporary
from 21 at 18 UTC to 21 at 20 UTC
Visibility: 7000 m
Broken clouds at a height of 1400 ft
rain showers
Probability 30% :
Temporary
from 21 at 18 UTC to 21 at 20 UTC
Visibility: 4000 m
Broken clouds at a height of 800 ft
rain, drizzle

TAF: EGPM 211700Z 2118/2120 11012KT 9999 FEW014 SCT025 TEMPO 2118/2120 7000 SHRA BKN014 PROB30 TEMPO 2118/2120 4000 RADZ BKN008

Weather observations and forecasts of more than 4000 airports (METAR and TAF reports).

The available stations are represented by yellow and red dots on the map.

Hover mouse over dot to see the name of the station.

Then click to see weather observations and forecasts.

To change the map : click on the green buttons with a black cross to zoom in, on the green button with a dash to zoom out, or on the green arrows for adjacent maps.


METAR-TAF: